sensor_id;sensor_type;location;lat;lon;timestamp;pressure;altitude;pressure_sealevel;temperature;humidity
35716;BME280;21840;44.920;8.616;2022-09-27T00:01:37;98905.41;;;20.68;53.16
35716;BME280;21840;44.920;8.616;2022-09-27T00:04:03;98900.41;;;20.72;53.08
35716;BME280;21840;44.920;8.616;2022-09-27T00:06:30;98895.63;;;20.74;52.97
35716;BME280;21840;44.920;8.616;2022-09-27T00:08:57;98900.88;;;20.69;52.69
35716;BME280;21840;44.920;8.616;2022-09-27T00:13:54;98895.44;;;20.64;52.84
35716;BME280;21840;44.920;8.616;2022-09-27T00:16:21;98897.31;;;20.63;52.83
35716;BME280;21840;44.920;8.616;2022-09-27T00:18:47;98893.34;;;20.54;53.14
35716;BME280;21840;44.920;8.616;2022-09-27T00:21:13;98899.53;;;20.55;53.17
35716;BME280;21840;44.920;8.616;2022-09-27T00:23:39;98889.56;;;20.38;53.43
35716;BME280;21840;44.920;8.616;2022-09-27T00:26:05;98885.28;;;20.25;53.89
35716;BME280;21840;44.920;8.616;2022-09-27T00:28:32;98886.09;;;20.26;53.96
35716;BME280;21840;44.920;8.616;2022-09-27T00:30:58;98890.97;;;20.29;54.62
35716;BME280;21840;44.920;8.616;2022-09-27T00:33:25;98886.34;;;20.13;55.58
35716;BME280;21840;44.920;8.616;2022-09-27T00:35:50;98884.84;;;20.17;55.44
35716;BME280;21840;44.920;8.616;2022-09-27T00:38:16;98879.97;;;20.14;55.32
35716;BME280;21840;44.920;8.616;2022-09-27T00:40:42;98880.22;;;19.89;56.24
35716;BME280;21840;44.920;8.616;2022-09-27T00:43:20;98868.28;;;19.68;56.80
35716;BME280;21840;44.920;8.616;2022-09-27T00:45:52;98867.25;;;19.92;55.92
35716;BME280;21840;44.920;8.616;2022-09-27T00:48:22;98860.28;;;19.91;56.19
35716;BME280;21840;44.920;8.616;2022-09-27T00:50:54;98859.38;;;19.86;56.15
35716;BME280;21840;44.920;8.616;2022-09-27T00:53:34;98857.75;;;19.73;56.53
35716;BME280;21840;44.920;8.616;2022-09-27T00:56:11;98854.38;;;19.66;56.67
35716;BME280;21840;44.920;8.616;2022-09-27T00:58:42;98852.31;;;19.68;56.62
35716;BME280;21840;44.920;8.616;2022-09-27T01:01:11;98850.75;;;19.48;57.02
35716;BME280;21840;44.920;8.616;2022-09-27T01:03:51;98850.66;;;19.55;56.95
35716;BME280;21840;44.920;8.616;2022-09-27T01:06:20;98852.13;;;19.39;57.63
35716;BME280;21840;44.920;8.616;2022-09-27T01:08:47;98843.91;;;19.29;57.98
35716;BME280;21840;44.920;8.616;2022-09-27T01:11:18;98853.06;;;19.33;57.79
35716;BME280;21840;44.920;8.616;2022-09-27T01:25:13;98855.22;;;19.12;58.32
35716;BME280;21840;44.920;8.616;2022-09-27T01:44:43;98811.84;;;18.82;58.87
35716;BME280;21840;44.920;8.616;2022-09-27T01:47:20;98819.06;;;18.93;58.57
35716;BME280;21840;44.920;8.616;2022-09-27T01:49:57;98821.13;;;18.91;58.44
35716;BME280;21840;44.920;8.616;2022-09-27T01:52:30;98819.06;;;18.74;59.19
35716;BME280;21840;44.920;8.616;2022-09-27T01:55:00;98821.69;;;18.81;59.13
35716;BME280;21840;44.920;8.616;2022-09-27T01:57:42;98815.22;;;18.77;58.99
35716;BME280;21840;44.920;8.616;2022-09-27T02:00:16;98813.19;;;18.72;58.87
35716;BME280;21840;44.920;8.616;2022-09-27T02:02:49;98800.13;;;18.71;58.80
35716;BME280;21840;44.920;8.616;2022-09-27T02:05:35;98798.13;;;18.66;59.00
35716;BME280;21840;44.920;8.616;2022-09-27T02:10:57;98795.97;;;18.75;58.71
35716;BME280;21840;44.920;8.616;2022-09-27T02:13:36;98786.59;;;18.72;58.88
35716;BME280;21840;44.920;8.616;2022-09-27T02:24:13;98761.81;;;18.90;58.62
35716;BME280;21840;44.920;8.616;2022-09-27T02:26:46;98758.09;;;18.91;58.34
35716;BME280;21840;44.920;8.616;2022-09-27T02:29:30;98760.09;;;18.96;58.27
35716;BME280;21840;44.920;8.616;2022-09-27T02:31:58;98768.53;;;18.74;58.91
35716;BME280;21840;44.920;8.616;2022-09-27T02:34:30;98777.44;;;18.68;58.99
35716;BME280;21840;44.920;8.616;2022-09-27T02:36:58;98777.31;;;18.63;58.74
35716;BME280;21840;44.920;8.616;2022-09-27T02:39:24;98772.19;;;18.80;58.53
35716;BME280;21840;44.920;8.616;2022-09-27T02:42:04;98770.47;;;18.86;58.57
35716;BME280;21840;44.920;8.616;2022-09-27T02:44:30;98759.84;;;18.86;58.35
35716;BME280;21840;44.920;8.616;2022-09-27T02:55:50;98747.25;;;18.63;59.18
35716;BME280;21840;44.920;8.616;2022-09-27T03:04:33;98746.94;;;18.41;60.51
35716;BME280;21840;44.920;8.616;2022-09-27T03:07:02;98753.59;;;18.50;60.66
35716;BME280;21840;44.920;8.616;2022-09-27T03:09:38;98745.28;;;18.58;60.08
35716;BME280;21840;44.920;8.616;2022-09-27T03:12:05;98741.63;;;18.41;59.91
35716;BME280;21840;44.920;8.616;2022-09-27T03:14:31;98747.88;;;18.35;59.97
35716;BME280;21840;44.920;8.616;2022-09-27T03:17:08;98745.50;;;18.26;59.79
35716;BME280;21840;44.920;8.616;2022-09-27T03:20:06;98749.56;;;17.74;60.65
35716;BME280;21840;44.920;8.616;2022-09-27T03:22:55;98747.97;;;17.73;60.84
35716;BME280;21840;44.920;8.616;2022-09-27T03:25:20;98747.25;;;17.40;62.00
35716;BME280;21840;44.920;8.616;2022-09-27T03:27:46;98731.78;;;17.74;61.07
35716;BME280;21840;44.920;8.616;2022-09-27T03:30:13;98734.16;;;17.64;60.85
35716;BME280;21840;44.920;8.616;2022-09-27T03:32:45;98735.28;;;17.75;60.64
35716;BME280;21840;44.920;8.616;2022-09-27T03:35:30;98735.56;;;17.66;60.64
35716;BME280;21840;44.920;8.616;2022-09-27T03:37:56;98737.09;;;17.74;60.29
35716;BME280;21840;44.920;8.616;2022-09-27T03:40:21;98737.84;;;17.63;60.31
35716;BME280;21840;44.920;8.616;2022-09-27T03:42:47;98742.44;;;17.31;61.04
35716;BME280;21840;44.920;8.616;2022-09-27T03:45:14;98740.09;;;17.22;61.57
35716;BME280;21840;44.920;8.616;2022-09-27T03:47:40;98733.75;;;17.42;61.26
35716;BME280;21840;44.920;8.616;2022-09-27T03:50:07;98731.34;;;17.59;60.55
35716;BME280;21840;44.920;8.616;2022-09-27T03:52:33;98730.75;;;17.57;60.60
35716;BME280;21840;44.920;8.616;2022-09-27T03:54:59;98739.16;;;17.54;60.73
35716;BME280;21840;44.920;8.616;2022-09-27T03:57:25;98728.25;;;17.43;61.37
35716;BME280;21840;44.920;8.616;2022-09-27T03:59:50;98730.91;;;17.43;61.82
35716;BME280;21840;44.920;8.616;2022-09-27T04:02:42;98730.34;;;17.60;61.13
35716;BME280;21840;44.920;8.616;2022-09-27T04:05:40;98725.31;;;17.70;60.89
35716;BME280;21840;44.920;8.616;2022-09-27T04:08:10;98727.81;;;17.65;60.74
35716;BME280;21840;44.920;8.616;2022-09-27T04:10:37;98729.66;;;17.46;60.69
35716;BME280;21840;44.920;8.616;2022-09-27T04:13:03;98734.84;;;17.34;61.04
35716;BME280;21840;44.920;8.616;2022-09-27T04:15:34;98732.94;;;17.41;61.03
35716;BME280;21840;44.920;8.616;2022-09-27T04:18:18;98736.50;;;17.35;61.57
35716;BME280;21840;44.920;8.616;2022-09-27T04:21:02;98727.00;;;17.02;62.32
35716;BME280;21840;44.920;8.616;2022-09-27T04:23:30;98722.78;;;17.38;61.63
35716;BME280;21840;44.920;8.616;2022-09-27T04:25:56;98722.34;;;17.41;61.11
35716;BME280;21840;44.920;8.616;2022-09-27T04:28:46;98725.44;;;17.57;60.96
35716;BME280;21840;44.920;8.616;2022-09-27T04:31:12;98725.97;;;17.65;60.69
35716;BME280;21840;44.920;8.616;2022-09-27T04:33:54;98725.44;;;16.95;62.95
35716;BME280;21840;44.920;8.616;2022-09-27T04:36:26;98722.41;;;17.10;63.02
35716;BME280;21840;44.920;8.616;2022-09-27T04:39:07;98719.03;;;17.46;61.97
35716;BME280;21840;44.920;8.616;2022-09-27T04:41:36;98725.03;;;17.60;61.33
35716;BME280;21840;44.920;8.616;2022-09-27T04:44:02;98716.16;;;17.48;61.77
35716;BME280;21840;44.920;8.616;2022-09-27T04:46:29;98711.59;;;17.55;61.45
35716;BME280;21840;44.920;8.616;2022-09-27T04:48:59;98714.41;;;17.60;61.39
35716;BME280;21840;44.920;8.616;2022-09-27T04:51:26;98708.25;;;17.59;61.55
35716;BME280;21840;44.920;8.616;2022-09-27T04:53:55;98723.31;;;17.65;61.16
35716;BME280;21840;44.920;8.616;2022-09-27T04:56:21;98718.88;;;17.59;61.03
35716;BME280;21840;44.920;8.616;2022-09-27T04:58:46;98728.31;;;17.12;62.56
35716;BME280;21840;44.920;8.616;2022-09-27T05:01:13;98725.63;;;17.18;62.69
35716;BME280;21840;44.920;8.616;2022-09-27T05:03:57;98722.91;;;17.25;62.48
35716;BME280;21840;44.920;8.616;2022-09-27T05:06:24;98715.88;;;17.37;62.04
35716;BME280;21840;44.920;8.616;2022-09-27T05:08:54;98721.59;;;17.34;61.88
35716;BME280;21840;44.920;8.616;2022-09-27T05:11:25;98724.41;;;17.39;61.70
35716;BME280;21840;44.920;8.616;2022-09-27T05:14:10;98716.13;;;17.29;61.90
35716;BME280;21840;44.920;8.616;2022-09-27T05:16:47;98716.97;;;17.04;62.28
35716;BME280;21840;44.920;8.616;2022-09-27T05:19:44;98718.78;;;17.29;61.86
35716;BME280;21840;44.920;8.616;2022-09-27T05:22:39;98723.59;;;17.39;61.54
35716;BME280;21840;44.920;8.616;2022-09-27T05:25:06;98726.47;;;17.37;60.89
35716;BME280;21840;44.920;8.616;2022-09-27T05:27:31;98724.81;;;16.93;61.61
35716;BME280;21840;44.920;8.616;2022-09-27T05:29:57;98735.16;;;17.26;60.85
35716;BME280;21840;44.920;8.616;2022-09-27T05:32:34;98741.00;;;17.35;60.45
35716;BME280;21840;44.920;8.616;2022-09-27T05:35:19;98746.50;;;17.33;60.12
35716;BME280;21840;44.920;8.616;2022-09-27T05:37:55;98748.97;;;17.35;60.04
35716;BME280;21840;44.920;8.616;2022-09-27T05:40:23;98741.09;;;16.96;61.17
35716;BME280;21840;44.920;8.616;2022-09-27T05:42:53;98751.59;;;17.35;60.47
35716;BME280;21840;44.920;8.616;2022-09-27T05:45:20;98734.66;;;17.54;59.71
35716;BME280;21840;44.920;8.616;2022-09-27T05:47:53;98735.75;;;17.28;60.15
35716;BME280;21840;44.920;8.616;2022-09-27T05:50:19;98739.50;;;17.39;59.94
35716;BME280;21840;44.920;8.616;2022-09-27T05:52:46;98741.38;;;16.88;61.25
35716;BME280;21840;44.920;8.616;2022-09-27T05:55:12;98749.22;;;17.27;60.77
35716;BME280;21840;44.920;8.616;2022-09-27T05:57:38;98740.19;;;17.09;60.27
35716;BME280;21840;44.920;8.616;2022-09-27T06:00:06;98752.88;;;17.51;59.56
35716;BME280;21840;44.920;8.616;2022-09-27T06:02:38;98763.34;;;17.64;58.88
35716;BME280;21840;44.920;8.616;2022-09-27T06:05:23;98762.50;;;17.70;58.39
35716;BME280;21840;44.920;8.616;2022-09-27T06:08:10;98765.72;;;17.72;58.22
35716;BME280;21840;44.920;8.616;2022-09-27T06:10:41;98760.34;;;17.79;57.73
35716;BME280;21840;44.920;8.616;2022-09-27T06:13:13;98756.72;;;17.30;58.79
35716;BME280;21840;44.920;8.616;2022-09-27T06:15:42;98758.94;;;17.58;58.46
35716;BME280;21840;44.920;8.616;2022-09-27T06:18:10;98748.53;;;17.56;58.16
35716;BME280;21840;44.920;8.616;2022-09-27T06:20:41;98748.63;;;17.86;57.89
35716;BME280;21840;44.920;8.616;2022-09-27T06:23:15;98746.28;;;17.97;57.53
35716;BME280;21840;44.920;8.616;2022-09-27T06:25:43;98753.81;;;18.00;57.42
35716;BME280;21840;44.920;8.616;2022-09-27T06:28:21;98753.72;;;18.25;57.25
35716;BME280;21840;44.920;8.616;2022-09-27T06:30:54;98760.00;;;17.94;58.02
35716;BME280;21840;44.920;8.616;2022-09-27T06:33:42;98763.97;;;17.84;58.29
35716;BME280;21840;44.920;8.616;2022-09-27T06:36:08;98752.81;;;18.31;57.23
35716;BME280;21840;44.920;8.616;2022-09-27T06:38:36;98758.06;;;18.19;56.99
35716;BME280;21840;44.920;8.616;2022-09-27T06:41:18;98761.28;;;18.40;57.00
35716;BME280;21840;44.920;8.616;2022-09-27T06:44:07;98758.66;;;18.51;56.55
35716;BME280;21840;44.920;8.616;2022-09-27T06:46:38;98769.22;;;18.58;56.38
35716;BME280;21840;44.920;8.616;2022-09-27T06:49:30;98753.31;;;18.70;56.17
35716;BME280;21840;44.920;8.616;2022-09-27T06:51:56;98764.69;;;18.77;56.03
35716;BME280;21840;44.920;8.616;2022-09-27T06:54:22;98765.63;;;18.94;55.75
35716;BME280;21840;44.920;8.616;2022-09-27T06:56:47;98765.53;;;19.01;55.94
35716;BME280;21840;44.920;8.616;2022-09-27T06:59:13;98770.50;;;19.09;55.85
35716;BME280;21840;44.920;8.616;2022-09-27T07:02:16;98779.53;;;19.08;56.05
35716;BME280;21840;44.920;8.616;2022-09-27T07:05:09;98776.78;;;19.27;55.61
35716;BME280;21840;44.920;8.616;2022-09-27T07:07:58;98771.13;;;19.23;55.79
35716;BME280;21840;44.920;8.616;2022-09-27T07:10:25;98773.56;;;19.25;55.97
35716;BME280;21840;44.920;8.616;2022-09-27T07:12:53;98768.91;;;19.32;55.75
35716;BME280;21840;44.920;8.616;2022-09-27T07:15:19;98775.25;;;19.19;56.14
35716;BME280;21840;44.920;8.616;2022-09-27T07:17:56;98769.06;;;19.37;56.11
35716;BME280;21840;44.920;8.616;2022-09-27T07:20:27;98763.84;;;19.42;55.78
35716;BME280;21840;44.920;8.616;2022-09-27T07:22:57;98773.56;;;19.48;55.91
35716;BME280;21840;44.920;8.616;2022-09-27T07:25:24;98770.31;;;19.46;56.15
35716;BME280;21840;44.920;8.616;2022-09-27T07:27:53;98771.94;;;19.47;56.00
35716;BME280;21840;44.920;8.616;2022-09-27T07:30:20;98771.22;;;19.64;55.29
35716;BME280;21840;44.920;8.616;2022-09-27T07:32:46;98759.66;;;19.81;55.13
35716;BME280;21840;44.920;8.616;2022-09-27T07:35:12;98767.78;;;19.75;55.28
35716;BME280;21840;44.920;8.616;2022-09-27T07:37:42;98776.50;;;20.11;54.58
35716;BME280;21840;44.920;8.616;2022-09-27T07:40:11;98767.03;;;20.32;54.05
35716;BME280;21840;44.920;8.616;2022-09-27T07:42:37;98778.78;;;20.19;54.44
35716;BME280;21840;44.920;8.616;2022-09-27T07:45:05;98779.63;;;20.19;54.53
35716;BME280;21840;44.920;8.616;2022-09-27T07:47:49;98774.06;;;20.50;53.95
35716;BME280;21840;44.920;8.616;2022-09-27T07:50:20;98779.22;;;20.68;53.52
35716;BME280;21840;44.920;8.616;2022-09-27T07:52:56;98787.94;;;20.52;53.70
35716;BME280;21840;44.920;8.616;2022-09-27T07:55:33;98792.25;;;20.81;53.22
35716;BME280;21840;44.920;8.616;2022-09-27T07:58:09;98792.69;;;20.90;52.89
35716;BME280;21840;44.920;8.616;2022-09-27T08:00:35;98785.16;;;21.04;52.69
35716;BME280;21840;44.920;8.616;2022-09-27T08:03:07;98786.31;;;21.08;52.39
35716;BME280;21840;44.920;8.616;2022-09-27T08:05:34;98789.22;;;21.06;52.50
35716;BME280;21840;44.920;8.616;2022-09-27T08:08:01;98784.22;;;21.10;52.55
35716;BME280;21840;44.920;8.616;2022-09-27T08:10:28;98784.72;;;21.07;52.65
35716;BME280;21840;44.920;8.616;2022-09-27T08:13:03;98794.41;;;21.13;52.55
35716;BME280;21840;44.920;8.616;2022-09-27T08:15:33;98792.72;;;21.07;52.54
35716;BME280;21840;44.920;8.616;2022-09-27T08:18:04;98790.03;;;21.24;52.43
35716;BME280;21840;44.920;8.616;2022-09-27T08:20:49;98795.19;;;21.14;52.51
35716;BME280;21840;44.920;8.616;2022-09-27T08:23:32;98785.53;;;21.24;52.14
35716;BME280;21840;44.920;8.616;2022-09-27T08:26:21;98783.72;;;21.13;52.29
35716;BME280;21840;44.920;8.616;2022-09-27T08:28:59;98783.06;;;21.06;52.90
35716;BME280;21840;44.920;8.616;2022-09-27T08:31:29;98789.88;;;21.14;52.70
35716;BME280;21840;44.920;8.616;2022-09-27T08:33:55;98796.66;;;21.21;52.55
35716;BME280;21840;44.920;8.616;2022-09-27T08:36:22;98798.75;;;21.36;52.20
35716;BME280;21840;44.920;8.616;2022-09-27T08:38:50;98791.84;;;21.52;51.87
35716;BME280;21840;44.920;8.616;2022-09-27T08:41:36;98798.63;;;21.43;52.22
35716;BME280;21840;44.920;8.616;2022-09-27T08:47:35;98793.59;;;21.63;51.70
35716;BME280;21840;44.920;8.616;2022-09-27T08:52:49;98791.50;;;21.65;51.64
35716;BME280;21840;44.920;8.616;2022-09-27T08:55:26;98791.47;;;21.82;51.22
35716;BME280;21840;44.920;8.616;2022-09-27T08:57:56;98794.38;;;21.81;51.01
35716;BME280;21840;44.920;8.616;2022-09-27T09:00:27;98785.66;;;21.68;51.45
35716;BME280;21840;44.920;8.616;2022-09-27T09:02:55;98788.16;;;21.75;51.19
35716;BME280;21840;44.920;8.616;2022-09-27T09:05:34;98782.91;;;22.02;50.41
35716;BME280;21840;44.920;8.616;2022-09-27T09:11:42;98790.03;;;22.18;49.52
35716;BME280;21840;44.920;8.616;2022-09-27T09:17:27;98787.84;;;22.15;49.18
35716;BME280;21840;44.920;8.616;2022-09-27T09:20:54;98782.16;;;22.29;49.08
35716;BME280;21840;44.920;8.616;2022-09-27T09:32:17;98786.47;;;22.30;49.31
35716;BME280;21840;44.920;8.616;2022-09-27T09:34:50;98776.81;;;22.29;49.41
35716;BME280;21840;44.920;8.616;2022-09-27T09:37:32;98777.63;;;22.56;48.65
35716;BME280;21840;44.920;8.616;2022-09-27T09:40:24;98775.56;;;22.64;48.63
35716;BME280;21840;44.920;8.616;2022-09-27T09:43:04;98776.50;;;22.47;48.64
35716;BME280;21840;44.920;8.616;2022-09-27T09:45:39;98776.72;;;22.46;48.68
35716;BME280;21840;44.920;8.616;2022-09-27T09:48:48;98765.56;;;22.81;48.08
35716;BME280;21840;44.920;8.616;2022-09-27T09:51:17;98761.75;;;22.99;47.75
35716;BME280;21840;44.920;8.616;2022-09-27T09:54:06;98754.78;;;22.71;48.40
35716;BME280;21840;44.920;8.616;2022-09-27T09:56:40;98754.69;;;22.93;47.72
35716;BME280;21840;44.920;8.616;2022-09-27T09:59:14;98755.13;;;22.79;48.02
35716;BME280;21840;44.920;8.616;2022-09-27T10:01:45;98749.84;;;22.57;48.50
35716;BME280;21840;44.920;8.616;2022-09-27T10:04:32;98748.53;;;22.92;47.66
35716;BME280;21840;44.920;8.616;2022-09-27T10:07:00;98740.75;;;23.23;46.88
35716;BME280;21840;44.920;8.616;2022-09-27T10:09:30;98736.34;;;23.01;47.31
35716;BME280;21840;44.920;8.616;2022-09-27T10:12:18;98744.53;;;23.22;47.09
35716;BME280;21840;44.920;8.616;2022-09-27T10:14:46;98740.84;;;23.33;47.04
35716;BME280;21840;44.920;8.616;2022-09-27T10:17:15;98735.94;;;23.20;46.90
35716;BME280;21840;44.920;8.616;2022-09-27T10:19:44;98738.91;;;23.29;47.04
35716;BME280;21840;44.920;8.616;2022-09-27T10:22:12;98739.22;;;23.32;47.10
35716;BME280;21840;44.920;8.616;2022-09-27T10:25:01;98742.50;;;23.39;46.36
35716;BME280;21840;44.920;8.616;2022-09-27T10:27:50;98728.38;;;23.54;45.89
35716;BME280;21840;44.920;8.616;2022-09-27T10:30:30;98729.97;;;23.55;46.23
35716;BME280;21840;44.920;8.616;2022-09-27T10:33:15;98734.22;;;23.46;46.23
35716;BME280;21840;44.920;8.616;2022-09-27T10:35:45;98738.84;;;23.61;45.94
35716;BME280;21840;44.920;8.616;2022-09-27T10:38:28;98740.16;;;23.53;46.22
35716;BME280;21840;44.920;8.616;2022-09-27T10:41:22;98740.28;;;23.74;46.07
35716;BME280;21840;44.920;8.616;2022-09-27T10:43:48;98742.06;;;23.58;45.91
35716;BME280;21840;44.920;8.616;2022-09-27T10:46:26;98734.22;;;23.46;46.52
35716;BME280;21840;44.920;8.616;2022-09-27T10:51:54;98737.16;;;23.44;45.85
35716;BME280;21840;44.920;8.616;2022-09-27T10:54:23;98740.66;;;23.50;45.67
35716;BME280;21840;44.920;8.616;2022-09-27T10:57:17;98731.94;;;22.90;46.15
35716;BME280;21840;44.920;8.616;2022-09-27T10:59:52;98725.97;;;23.58;44.91
35716;BME280;21840;44.920;8.616;2022-09-27T11:02:28;98723.53;;;23.56;44.79
35716;BME280;21840;44.920;8.616;2022-09-27T11:07:50;98728.34;;;23.97;44.56
35716;BME280;21840;44.920;8.616;2022-09-27T11:10:33;98735.00;;;23.84;43.75
35716;BME280;21840;44.920;8.616;2022-09-27T11:13:13;98733.25;;;23.67;44.31
35716;BME280;21840;44.920;8.616;2022-09-27T11:29:48;98715.97;;;23.90;42.31
35716;BME280;21840;44.920;8.616;2022-09-27T11:44:39;98704.28;;;24.32;39.94
35716;BME280;21840;44.920;8.616;2022-09-27T11:49:53;98710.78;;;24.47;39.77
35716;BME280;21840;44.920;8.616;2022-09-27T11:57:39;98698.97;;;24.63;38.73
35716;BME280;21840;44.920;8.616;2022-09-27T12:00:14;98700.06;;;24.62;39.07
35716;BME280;21840;44.920;8.616;2022-09-27T12:08:48;98697.13;;;24.74;37.51
35716;BME280;21840;44.920;8.616;2022-09-27T12:14:17;98695.78;;;24.82;36.90
35716;BME280;21840;44.920;8.616;2022-09-27T12:16:49;98689.59;;;24.66;37.58
35716;BME280;21840;44.920;8.616;2022-09-27T12:19:32;98687.72;;;24.97;37.11
35716;BME280;21840;44.920;8.616;2022-09-27T12:22:34;98695.22;;;24.90;36.73
35716;BME280;21840;44.920;8.616;2022-09-27T12:25:03;98694.97;;;24.91;34.42
35716;BME280;21840;44.920;8.616;2022-09-27T12:27:41;98695.22;;;24.90;34.71
35716;BME280;21840;44.920;8.616;2022-09-27T12:30:12;98691.72;;;25.10;35.44
35716;BME280;21840;44.920;8.616;2022-09-27T12:33:00;98695.19;;;25.15;35.76
35716;BME280;21840;44.920;8.616;2022-09-27T12:35:28;98690.91;;;25.20;34.51
35716;BME280;21840;44.920;8.616;2022-09-27T12:38:04;98687.66;;;25.28;33.57
35716;BME280;21840;44.920;8.616;2022-09-27T12:40:40;98691.44;;;25.27;32.78
35716;BME280;21840;44.920;8.616;2022-09-27T12:43:22;98678.56;;;25.29;32.73
35716;BME280;21840;44.920;8.616;2022-09-27T12:52:04;98674.47;;;25.47;32.61
35716;BME280;21840;44.920;8.616;2022-09-27T13:06:05;98676.53;;;25.65;31.37
35716;BME280;21840;44.920;8.616;2022-09-27T13:14:22;98680.28;;;25.69;30.20
35716;BME280;21840;44.920;8.616;2022-09-27T13:16:49;98675.97;;;25.68;30.09
35716;BME280;21840;44.920;8.616;2022-09-27T13:19:38;98687.00;;;25.72;29.49
35716;BME280;21840;44.920;8.616;2022-09-27T13:25:01;98689.34;;;25.99;28.62
35716;BME280;21840;44.920;8.616;2022-09-27T13:27:55;98683.72;;;25.90;27.68
35716;BME280;21840;44.920;8.616;2022-09-27T13:35:41;98686.22;;;26.26;27.38
35716;BME280;21840;44.920;8.616;2022-09-27T13:38:22;98682.41;;;26.32;27.18
35716;BME280;21840;44.920;8.616;2022-09-27T13:40:50;98682.22;;;26.18;27.22
35716;BME280;21840;44.920;8.616;2022-09-27T13:43:33;98689.75;;;26.21;27.65
35716;BME280;21840;44.920;8.616;2022-09-27T13:46:14;98687.59;;;26.23;27.80
35716;BME280;21840;44.920;8.616;2022-09-27T13:54:51;98691.00;;;26.34;27.02
35716;BME280;21840;44.920;8.616;2022-09-27T13:57:40;98682.59;;;26.46;26.88
35716;BME280;21840;44.920;8.616;2022-09-27T14:00:11;98689.63;;;26.37;27.08
35716;BME280;21840;44.920;8.616;2022-09-27T14:05:39;98684.66;;;26.59;26.35
35716;BME280;21840;44.920;8.616;2022-09-27T14:08:52;98679.84;;;26.85;26.54
35716;BME280;21840;44.920;8.616;2022-09-27T14:11:17;98671.81;;;26.80;27.18
35716;BME280;21840;44.920;8.616;2022-09-27T14:13:45;98676.88;;;26.87;26.64
35716;BME280;21840;44.920;8.616;2022-09-27T14:16:17;98672.16;;;27.03;27.04
35716;BME280;21840;44.920;8.616;2022-09-27T14:18:54;98669.94;;;27.10;25.91
35716;BME280;21840;44.920;8.616;2022-09-27T14:21:35;98666.50;;;27.34;25.91
35716;BME280;21840;44.920;8.616;2022-09-27T14:24:42;98664.13;;;27.51;25.25
35716;BME280;21840;44.920;8.616;2022-09-27T14:27:25;98663.75;;;27.58;25.20
35716;BME280;21840;44.920;8.616;2022-09-27T14:29:59;98667.25;;;27.58;24.89
35716;BME280;21840;44.920;8.616;2022-09-27T14:32:31;98674.59;;;27.77;24.73
35716;BME280;21840;44.920;8.616;2022-09-27T14:35:12;98671.88;;;27.82;24.72
35716;BME280;21840;44.920;8.616;2022-09-27T14:37:58;98669.47;;;27.75;24.49
35716;BME280;21840;44.920;8.616;2022-09-27T14:40:24;98664.00;;;27.61;24.52
35716;BME280;21840;44.920;8.616;2022-09-27T14:42:58;98663.16;;;27.42;24.94
35716;BME280;21840;44.920;8.616;2022-09-27T14:45:35;98672.63;;;27.39;24.67
35716;BME280;21840;44.920;8.616;2022-09-27T14:48:27;98672.91;;;27.38;25.05
35716;BME280;21840;44.920;8.616;2022-09-27T14:53:36;98670.94;;;27.67;24.59
35716;BME280;21840;44.920;8.616;2022-09-27T14:56:05;98672.75;;;27.72;24.33
35716;BME280;21840;44.920;8.616;2022-09-27T14:58:32;98667.16;;;27.68;24.66
35716;BME280;21840;44.920;8.616;2022-09-27T15:00:58;98666.34;;;27.68;24.32
35716;BME280;21840;44.920;8.616;2022-09-27T15:03:31;98663.03;;;27.52;24.50
35716;BME280;21840;44.920;8.616;2022-09-27T15:05:58;98662.91;;;27.62;24.34
35716;BME280;21840;44.920;8.616;2022-09-27T15:08:27;98672.44;;;27.54;24.49
35716;BME280;21840;44.920;8.616;2022-09-27T15:10:59;98669.06;;;27.20;24.85
35716;BME280;21840;44.920;8.616;2022-09-27T15:13:25;98665.25;;;26.92;25.06
35716;BME280;21840;44.920;8.616;2022-09-27T15:15:55;98672.00;;;27.23;24.35
35716;BME280;21840;44.920;8.616;2022-09-27T15:18:43;98672.84;;;27.43;23.88
35716;BME280;21840;44.920;8.616;2022-09-27T15:21:33;98676.78;;;27.50;23.86
35716;BME280;21840;44.920;8.616;2022-09-27T15:23:59;98669.00;;;27.49;24.17
35716;BME280;21840;44.920;8.616;2022-09-27T15:26:39;98668.25;;;27.19;23.98
35716;BME280;21840;44.920;8.616;2022-09-27T15:29:05;98656.63;;;27.24;24.25
35716;BME280;21840;44.920;8.616;2022-09-27T15:31:33;98664.00;;;27.08;25.27
35716;BME280;21840;44.920;8.616;2022-09-27T15:34:00;98659.72;;;27.36;24.24
35716;BME280;21840;44.920;8.616;2022-09-27T15:36:50;98655.41;;;27.78;23.55
35716;BME280;21840;44.920;8.616;2022-09-27T15:39:38;98658.84;;;28.78;22.85
35716;BME280;21840;44.920;8.616;2022-09-27T15:44:54;98662.72;;;29.88;21.21
35716;BME280;21840;44.920;8.616;2022-09-27T15:52:47;98669.50;;;31.03;20.15
35716;BME280;21840;44.920;8.616;2022-09-27T15:55:23;98673.31;;;30.35;20.92
35716;BME280;21840;44.920;8.616;2022-09-27T15:57:59;98671.16;;;29.73;21.44
35716;BME280;21840;44.920;8.616;2022-09-27T16:00:29;98674.94;;;29.16;22.49
35716;BME280;21840;44.920;8.616;2022-09-27T16:02:55;98678.63;;;28.74;23.19
35716;BME280;21840;44.920;8.616;2022-09-27T16:05:21;98676.16;;;28.39;23.67
35716;BME280;21840;44.920;8.616;2022-09-27T16:07:51;98678.59;;;28.03;24.66
35716;BME280;21840;44.920;8.616;2022-09-27T16:10:20;98680.06;;;27.47;27.74
35716;BME280;21840;44.920;8.616;2022-09-27T16:12:45;98668.50;;;27.18;30.21
35716;BME280;21840;44.920;8.616;2022-09-27T16:15:12;98673.91;;;26.88;31.96
35716;BME280;21840;44.920;8.616;2022-09-27T16:17:38;98674.81;;;26.79;32.67
35716;BME280;21840;44.920;8.616;2022-09-27T16:20:14;98683.47;;;26.71;33.29
35716;BME280;21840;44.920;8.616;2022-09-27T16:22:41;98689.44;;;26.67;33.26
35716;BME280;21840;44.920;8.616;2022-09-27T16:25:10;98692.50;;;26.51;33.56
35716;BME280;21840;44.920;8.616;2022-09-27T16:27:36;98692.19;;;26.13;34.00
35716;BME280;21840;44.920;8.616;2022-09-27T16:30:02;98691.50;;;25.97;34.83
35716;BME280;21840;44.920;8.616;2022-09-27T16:32:28;98698.75;;;25.96;34.76
35716;BME280;21840;44.920;8.616;2022-09-27T16:34:54;98696.66;;;25.73;35.01